createdAt,value
2022-11-05T00:01:05.926Z,10.93
2022-11-05T00:03:48.569Z,10.63
2022-11-05T00:06:34.108Z,9.93
2022-11-05T00:09:16.891Z,10.15
2022-11-05T00:11:59.807Z,9.93
2022-11-05T00:14:42.537Z,10.68
2022-11-05T00:17:13.308Z,9.93
2022-11-05T00:19:43.726Z,9.65
2022-11-05T00:22:29.163Z,9.00
2022-11-05T00:25:11.902Z,10.02
2022-11-05T00:27:43.271Z,9.85
2022-11-05T00:30:17.130Z,9.50
2022-11-05T00:32:48.712Z,9.65
2022-11-05T00:35:20.622Z,9.18
2022-11-05T00:37:56.475Z,9.55
2022-11-05T00:40:26.936Z,9.07
2022-11-05T00:43:10.060Z,9.30
2022-11-05T00:45:41.310Z,9.45
2022-11-05T00:48:24.166Z,9.80
2022-11-05T00:50:54.683Z,9.93
2022-11-05T00:53:27.974Z,9.20
2022-11-05T00:55:58.610Z,8.70
2022-11-05T00:58:30.197Z,8.88
2022-11-05T01:01:01.900Z,9.38
2022-11-05T01:03:34.786Z,9.88
2022-11-05T01:06:10.736Z,9.13
2022-11-05T01:08:45.463Z,9.88
2022-11-05T01:11:33.611Z,9.60
2022-11-05T01:14:05.329Z,9.05
2022-11-05T01:16:36.450Z,9.95
2022-11-05T01:19:08.343Z,10.00
2022-11-05T01:21:39.082Z,9.30
2022-11-05T01:24:13.925Z,8.23
2022-11-05T01:26:44.357Z,9.88
2022-11-05T01:29:15.185Z,8.48
2022-11-05T01:31:45.771Z,7.85
2022-11-05T01:34:16.351Z,7.90
2022-11-05T01:36:46.816Z,8.48
2022-11-05T01:39:20.057Z,9.23
2022-11-05T01:41:50.558Z,8.15
2022-11-05T01:44:50.863Z,8.48
2022-11-05T01:47:30.986Z,8.30
2022-11-05T01:50:06.288Z,8.57
2022-11-05T01:55:13.407Z,7.90
2022-11-05T01:57:44.158Z,7.97
2022-11-05T02:00:16.814Z,8.98
2022-11-05T02:02:47.640Z,8.40
2022-11-05T02:05:18.929Z,7.90
2022-11-05T02:07:51.212Z,8.20
2022-11-05T02:10:25.893Z,8.05
2022-11-05T02:12:56.388Z,7.47
2022-11-05T02:15:58.239Z,8.07
2022-11-05T02:18:42.127Z,6.97
2022-11-05T02:21:39.588Z,7.07
2022-11-05T02:24:45.143Z,7.30
2022-11-05T02:27:23.909Z,7.22
2022-11-05T02:30:34.562Z,7.47
2022-11-05T02:33:14.040Z,7.55
2022-11-05T02:35:58.464Z,9.35
2022-11-05T02:38:41.342Z,7.43
2022-11-05T02:41:21.667Z,7.47
2022-11-05T02:44:06.154Z,8.25
2022-11-05T02:46:48.891Z,6.95
2022-11-05T02:49:27.154Z,6.85
2022-11-05T02:52:01.217Z,6.97
2022-11-05T02:54:39.625Z,7.25
2022-11-05T02:57:10.484Z,7.85
2022-11-05T02:59:41.005Z,7.15
2022-11-05T03:02:14.420Z,7.70
2022-11-05T03:04:45.117Z,7.65
2022-11-05T03:07:40.655Z,7.88
2022-11-05T03:10:42.418Z,7.33
2022-11-05T03:13:19.987Z,7.20
2022-11-05T03:15:59.935Z,7.10
2022-11-05T03:18:42.673Z,6.57
2022-11-05T03:21:20.337Z,7.35
2022-11-05T03:23:56.336Z,6.35
2022-11-05T03:26:32.203Z,6.80
2022-11-05T03:29:09.023Z,6.55
2022-11-05T03:31:42.556Z,6.47
2022-11-05T03:34:17.979Z,6.70
2022-11-05T03:36:51.718Z,6.32
2022-11-05T03:39:26.203Z,5.90
2022-11-05T03:41:58.661Z,5.67
2022-11-05T03:44:34.034Z,6.00
2022-11-05T03:47:08.766Z,6.10
2022-11-05T03:49:46.841Z,6.00
2022-11-05T03:52:21.487Z,5.97
2022-11-05T03:54:52.145Z,5.57
2022-11-05T03:57:28.101Z,5.65
2022-11-05T03:59:58.533Z,6.32
2022-11-05T04:02:31.503Z,5.70
2022-11-05T04:05:04.731Z,5.60
2022-11-05T04:07:47.571Z,6.50
2022-11-05T04:10:30.348Z,6.32
2022-11-05T04:13:13.386Z,5.30
2022-11-05T04:15:56.235Z,5.53
2022-11-05T04:18:26.799Z,5.43
2022-11-05T04:21:12.148Z,5.63
2022-11-05T04:23:55.163Z,6.03
2022-11-05T04:26:25.705Z,6.25
2022-11-05T04:29:08.992Z,5.68
2022-11-05T04:31:39.955Z,5.78
2022-11-05T04:34:11.163Z,5.47
2022-11-05T04:36:45.016Z,6.15
2022-11-05T04:39:15.586Z,5.82
2022-11-05T04:41:46.838Z,6.63
2022-11-05T04:44:18.353Z,6.15
2022-11-05T04:46:49.117Z,6.63
2022-11-05T04:49:19.818Z,6.57
2022-11-05T04:51:53.051Z,7.18
2022-11-05T04:54:23.529Z,6.70
2022-11-05T04:56:54.391Z,6.93
2022-11-05T04:59:24.818Z,6.65
2022-11-05T05:01:55.570Z,7.32
2022-11-05T05:04:26.053Z,7.60
2022-11-05T05:06:59.189Z,7.38
2022-11-05T05:09:29.781Z,6.30
2022-11-05T05:12:00.332Z,7.00
2022-11-05T05:14:30.764Z,6.40
2022-11-05T05:17:01.249Z,8.45
2022-11-05T05:19:51.986Z,6.78
2022-11-05T05:22:22.503Z,7.20
2022-11-05T05:24:53.258Z,7.68
2022-11-05T05:27:23.801Z,7.40
2022-11-05T05:29:54.269Z,8.68
2022-11-05T05:32:24.777Z,7.57
2022-11-05T05:34:55.784Z,7.07
2022-11-05T05:37:28.962Z,7.13
2022-11-05T05:39:59.489Z,7.07
2022-11-05T05:42:30.036Z,6.68
2022-11-05T05:45:00.550Z,7.22
2022-11-05T05:47:31.087Z,8.55
2022-11-05T05:50:01.569Z,11.88
2022-11-05T05:52:36.315Z,9.55
2022-11-05T05:55:07.425Z,10.75
2022-11-05T05:57:38.188Z,8.95
2022-11-05T06:00:09.722Z,7.55
2022-11-05T06:02:43.610Z,7.57
2022-11-05T06:05:14.167Z,5.78
2022-11-05T06:07:47.315Z,5.97
2022-11-05T06:10:17.866Z,5.75
2022-11-05T06:12:48.413Z,4.70
2022-11-05T06:15:19.026Z,8.60
2022-11-05T06:17:49.980Z,15.85
2022-11-05T06:20:20.893Z,10.45
2022-11-05T06:23:00.682Z,10.10
2022-11-05T06:25:31.169Z,8.32
2022-11-05T06:28:02.437Z,7.30
2022-11-05T06:30:33.123Z,6.10
2022-11-05T06:33:06.580Z,5.57
2022-11-05T06:35:37.155Z,5.80
2022-11-05T06:38:10.619Z,5.75
2022-11-05T06:40:41.107Z,5.43
2022-11-05T06:43:11.830Z,5.38
2022-11-05T06:45:42.631Z,5.45
2022-11-05T06:48:13.165Z,4.72
2022-11-05T06:50:47.252Z,5.63
2022-11-05T06:53:20.336Z,5.68
2022-11-05T06:55:50.869Z,6.00
2022-11-05T06:58:21.722Z,6.13
2022-11-05T07:00:52.263Z,5.78
2022-11-05T07:03:22.817Z,6.28
2022-11-05T07:05:54.027Z,6.18
2022-11-05T07:08:27.139Z,5.95
2022-11-05T07:10:57.586Z,5.75
2022-11-05T07:13:28.187Z,6.43
2022-11-05T07:15:58.796Z,5.57
2022-11-05T07:18:29.370Z,5.30
2022-11-05T07:20:59.854Z,5.05
2022-11-05T07:23:33.124Z,4.93
2022-11-05T07:26:03.576Z,5.38
2022-11-05T07:28:34.115Z,4.72
2022-11-05T07:31:04.659Z,4.47
2022-11-05T07:33:36.647Z,4.38
2022-11-05T07:36:08.632Z,5.05
2022-11-05T07:38:41.859Z,7.57
2022-11-05T07:41:12.389Z,5.20
2022-11-05T07:43:42.874Z,5.40
2022-11-05T07:46:14.036Z,5.22
2022-11-05T07:48:45.209Z,4.90
2022-11-05T07:51:15.956Z,5.90
2022-11-05T07:53:49.133Z,4.72
2022-11-05T07:56:19.724Z,4.38
2022-11-05T07:58:50.562Z,4.10
2022-11-05T08:01:21.216Z,4.63
2022-11-05T08:03:51.932Z,4.57
2022-11-05T08:06:22.766Z,4.22
2022-11-05T08:08:56.093Z,4.40
2022-11-05T08:11:26.618Z,5.18
2022-11-05T08:13:57.218Z,4.65
2022-11-05T08:16:27.786Z,4.20
2022-11-05T08:18:58.380Z,4.40
2022-11-05T08:21:28.900Z,4.85
2022-11-05T08:24:02.093Z,5.40
2022-11-05T08:26:32.586Z,4.47
2022-11-05T08:29:03.203Z,4.97
2022-11-05T08:31:37.279Z,4.90
2022-11-05T08:34:08.016Z,5.13
2022-11-05T08:36:42.364Z,4.30
2022-11-05T08:39:18.756Z,4.43
2022-11-05T08:41:50.395Z,9.23
2022-11-05T08:44:21.012Z,4.35
2022-11-05T08:46:51.612Z,4.80
2022-11-05T08:49:22.126Z,4.28
2022-11-05T08:51:52.613Z,4.18
2022-11-05T08:54:25.855Z,4.30
2022-11-05T08:56:56.485Z,4.28
2022-11-05T08:59:27.382Z,4.30
2022-11-05T09:01:57.987Z,5.30
2022-11-05T09:04:28.588Z,4.63
2022-11-05T09:06:59.068Z,4.43
2022-11-05T09:09:32.964Z,4.50
2022-11-05T09:12:12.182Z,4.45
2022-11-05T09:14:43.567Z,4.63
2022-11-05T09:17:20.094Z,4.85
2022-11-05T09:19:52.202Z,5.43
2022-11-05T09:22:22.709Z,4.20
2022-11-05T09:24:55.874Z,5.03
2022-11-05T09:27:26.704Z,5.30
2022-11-05T09:29:57.206Z,4.90
2022-11-05T09:32:27.682Z,5.10
2022-11-05T09:35:00.458Z,4.85
2022-11-05T09:37:32.045Z,5.30
2022-11-05T09:40:05.318Z,5.45
2022-11-05T09:42:40.921Z,5.45
2022-11-05T09:45:17.997Z,4.68
2022-11-05T09:47:52.528Z,4.93
2022-11-05T09:50:29.234Z,4.95
2022-11-05T09:52:59.933Z,4.75
2022-11-05T09:55:36.590Z,4.20
2022-11-05T09:58:12.665Z,4.75
2022-11-05T10:00:43.865Z,3.72
2022-11-05T10:03:18.339Z,4.25
2022-11-05T10:05:50.063Z,3.70
2022-11-05T10:08:25.660Z,3.95
2022-11-05T10:11:02.495Z,3.42
2022-11-05T10:13:39.552Z,4.07
2022-11-05T10:16:24.233Z,4.00
2022-11-05T10:18:58.151Z,4.40
2022-11-05T10:21:59.380Z,3.47
2022-11-05T10:56:05.878Z,4.93
2022-11-05T10:58:42.295Z,5.13
2022-11-05T11:01:16.033Z,6.05
2022-11-05T11:03:50.078Z,6.60
2022-11-05T11:06:26.527Z,6.82
2022-11-05T11:09:00.179Z,6.70
2022-11-05T11:11:39.270Z,6.78
2022-11-05T11:14:22.713Z,6.70
2022-11-05T11:16:57.705Z,7.00
2022-11-05T11:22:17.257Z,8.05
2022-11-05T11:24:50.220Z,8.60
2022-11-05T11:27:27.043Z,8.90
2022-11-05T11:30:03.309Z,8.02
2022-11-05T11:32:39.377Z,8.32
2022-11-05T11:35:21.678Z,8.40
2022-11-05T11:37:55.208Z,7.97
2022-11-05T11:40:28.248Z,8.88
2022-11-05T11:43:03.873Z,8.75
2022-11-05T11:45:37.202Z,8.50
2022-11-05T11:48:09.953Z,7.72
2022-11-05T11:50:44.102Z,8.43
2022-11-05T11:53:29.558Z,8.33
2022-11-05T11:56:08.563Z,8.60
2022-11-05T11:58:45.743Z,8.30
2022-11-05T12:01:53.623Z,8.68
2022-11-05T12:04:53.902Z,8.98
2022-11-05T12:07:40.977Z,9.27
2022-11-05T12:10:28.161Z,8.63
2022-11-05T12:13:30.196Z,9.80
2022-11-05T12:16:11.152Z,8.85
2022-11-05T12:18:50.013Z,9.80
2022-11-05T12:21:51.285Z,8.90
2022-11-05T12:24:32.770Z,8.85
2022-11-05T12:27:14.099Z,8.18
2022-11-05T12:29:57.117Z,8.45
2022-11-05T12:32:46.604Z,8.75
2022-11-05T12:35:30.186Z,8.57
2022-11-05T12:38:12.289Z,8.68
2022-11-05T12:41:18.561Z,9.05
2022-11-05T12:44:03.726Z,8.77
2022-11-05T12:46:41.442Z,8.80
2022-11-05T12:49:32.477Z,9.02
2022-11-05T12:52:19.355Z,8.85
2022-11-05T12:55:03.327Z,9.13
2022-11-05T12:57:36.210Z,9.27
2022-11-05T13:00:11.016Z,8.43
2022-11-05T13:02:47.761Z,9.00
2022-11-05T13:05:25.673Z,8.32
2022-11-05T13:08:02.322Z,9.98
2022-11-05T13:10:37.471Z,9.52
2022-11-05T13:13:16.455Z,10.00
2022-11-05T13:15:53.813Z,9.80
2022-11-05T13:18:33.091Z,9.40
2022-11-05T13:21:10.806Z,10.40
2022-11-05T13:23:45.410Z,10.55
2022-11-05T13:26:20.905Z,12.10
2022-11-05T13:28:57.152Z,11.27
2022-11-05T13:31:35.054Z,10.65
2022-11-05T13:34:12.343Z,10.95
2022-11-05T13:37:06.009Z,9.68
2022-11-05T13:39:39.757Z,9.90
2022-11-05T13:42:37.459Z,10.20
2022-11-05T13:45:28.986Z,9.88
2022-11-05T13:48:20.502Z,9.45
2022-11-05T13:51:12.512Z,9.48
2022-11-05T13:54:07.778Z,9.18
2022-11-05T13:56:55.434Z,9.05
2022-11-05T13:59:54.094Z,9.48
2022-11-05T14:02:27.941Z,8.82
2022-11-05T14:05:02.213Z,8.73
2022-11-05T14:07:37.504Z,8.35
2022-11-05T14:10:20.967Z,8.98
2022-11-05T14:12:53.784Z,8.50
2022-11-05T14:15:28.353Z,8.60
2022-11-05T14:18:02.275Z,8.85
2022-11-05T14:20:46.795Z,9.13
2022-11-05T14:23:43.382Z,8.80
2022-11-05T14:26:22.205Z,9.75
2022-11-05T14:29:08.832Z,10.15
2022-11-05T14:32:13.574Z,9.70
2022-11-05T14:34:48.463Z,9.20
2022-11-05T14:37:27.630Z,9.82
2022-11-05T14:39:58.823Z,10.07
2022-11-05T14:42:33.514Z,10.30
2022-11-05T14:45:23.847Z,11.30
2022-11-05T14:47:57.335Z,11.10
2022-11-05T14:50:36.586Z,11.23
2022-11-05T14:53:29.912Z,9.77
2022-11-05T14:56:04.017Z,9.90
2022-11-05T14:58:38.888Z,11.15
2022-11-05T15:01:10.880Z,10.77
2022-11-05T15:04:08.723Z,11.07
2022-11-05T15:06:39.910Z,10.20
2022-11-05T15:09:32.711Z,11.43
2022-11-05T15:12:11.634Z,11.05
2022-11-05T15:15:00.269Z,11.00
2022-11-05T15:17:33.427Z,12.35
2022-11-05T15:20:12.240Z,11.65
2022-11-05T15:22:46.097Z,11.93
2022-11-05T15:25:20.738Z,12.20
2022-11-05T15:28:02.757Z,13.00
2022-11-05T15:30:36.818Z,13.60
2022-11-05T15:33:21.205Z,12.73
2022-11-05T15:35:51.638Z,13.70
2022-11-05T15:38:30.928Z,13.27
2022-11-05T15:41:03.082Z,14.88
2022-11-05T15:43:33.873Z,14.02
2022-11-05T15:46:17.466Z,14.73
2022-11-05T15:48:50.121Z,13.80
2022-11-05T15:51:20.803Z,14.07
2022-11-05T15:54:29.717Z,13.52
2022-11-05T15:56:54.465Z,13.68
2022-11-05T15:59:26.698Z,15.23
2022-11-05T16:02:04.109Z,14.25
2022-11-05T16:04:37.325Z,14.07
2022-11-05T16:07:13.826Z,15.07
2022-11-05T16:09:46.677Z,16.40
2022-11-05T16:12:26.957Z,17.90
2022-11-05T16:15:06.264Z,17.15
2022-11-05T16:17:50.825Z,16.70
2022-11-05T16:20:24.290Z,18.88
2022-11-05T16:22:56.917Z,17.35
2022-11-05T16:25:33.095Z,17.95
2022-11-05T16:28:04.359Z,18.63
2022-11-05T16:30:34.937Z,18.17
2022-11-05T16:33:11.576Z,18.95
2022-11-05T16:35:50.612Z,18.92
2022-11-05T16:38:25.230Z,18.55
2022-11-05T16:40:55.766Z,17.50
2022-11-05T16:43:28.275Z,17.58
2022-11-05T16:46:01.488Z,17.75
2022-11-05T16:48:34.604Z,16.45
2022-11-05T16:51:05.169Z,17.92
2022-11-05T16:53:35.558Z,17.73
2022-11-05T16:56:06.468Z,18.35
2022-11-05T16:58:37.027Z,19.25
2022-11-05T17:01:10.778Z,18.13
2022-11-05T17:03:43.922Z,25.40
2022-11-05T17:06:15.117Z,22.40
2022-11-05T17:08:46.774Z,20.05
2022-11-05T17:11:18.320Z,21.70
2022-11-05T17:13:49.505Z,20.63
2022-11-05T17:16:20.862Z,21.75
2022-11-05T17:18:53.950Z,19.95
2022-11-05T17:21:24.390Z,20.42
2022-11-05T17:23:54.849Z,20.95
2022-11-05T17:26:25.811Z,19.80
2022-11-05T17:28:56.288Z,20.73
2022-11-05T17:31:27.529Z,20.40
2022-11-05T17:34:02.088Z,19.70
2022-11-05T17:36:32.585Z,21.02
2022-11-05T17:39:03.034Z,19.45
2022-11-05T17:41:33.731Z,17.23
2022-11-05T17:44:04.175Z,18.60
2022-11-05T17:46:34.893Z,18.23
2022-11-05T17:49:07.994Z,17.92
2022-11-05T17:51:38.918Z,18.90
2022-11-05T17:54:09.354Z,18.08
2022-11-05T17:56:44.886Z,17.08
2022-11-05T17:59:15.444Z,17.30
2022-11-05T18:01:46.241Z,17.02
2022-11-05T18:04:19.562Z,16.55
2022-11-05T18:06:50.685Z,15.98
2022-11-05T18:09:21.387Z,15.48
2022-11-05T18:11:51.977Z,17.00
2022-11-05T18:14:24.269Z,16.30
2022-11-05T18:16:55.581Z,16.80
2022-11-05T18:19:29.243Z,16.35
2022-11-05T18:22:00.426Z,15.60
2022-11-05T18:24:30.965Z,17.52
2022-11-05T18:27:01.785Z,17.10
2022-11-05T18:29:32.621Z,19.63
2022-11-05T18:32:03.292Z,18.98
2022-11-05T18:34:36.389Z,18.55
2022-11-05T18:37:07.051Z,18.70
2022-11-05T18:39:37.523Z,19.42
2022-11-05T18:42:08.396Z,20.05
2022-11-05T18:44:39.646Z,19.42
2022-11-05T18:47:10.477Z,19.20
2022-11-05T18:49:43.606Z,19.38
2022-11-05T18:52:14.194Z,19.60
2022-11-05T18:54:44.610Z,17.17
2022-11-05T18:57:15.452Z,17.02
2022-11-05T18:59:46.918Z,18.42
2022-11-05T19:02:18.342Z,17.02
2022-11-05T19:05:22.168Z,17.00
2022-11-05T19:07:42.903Z,16.33
2022-11-05T19:10:13.398Z,17.40
2022-11-05T19:12:44.013Z,15.55
2022-11-05T19:15:14.712Z,15.85
2022-11-05T19:17:45.262Z,14.38
2022-11-05T19:20:18.463Z,14.57
2022-11-05T19:22:49.101Z,12.77
2022-11-05T19:25:19.622Z,12.55
2022-11-05T19:27:50.204Z,12.77
2022-11-05T19:30:20.939Z,11.85
2022-11-05T19:32:51.487Z,11.65
2022-11-05T19:35:24.742Z,10.13
2022-11-05T19:37:55.354Z,10.27
2022-11-05T19:40:25.842Z,10.23
2022-11-05T19:42:56.474Z,10.15
2022-11-05T19:48:19.752Z,9.57
2022-11-05T19:50:53.192Z,9.15
2022-11-05T19:53:23.675Z,9.73
2022-11-05T19:55:54.095Z,9.90
2022-11-05T19:58:24.835Z,8.63
2022-11-05T20:00:58.323Z,8.75
2022-11-05T20:03:29.077Z,8.82
2022-11-05T20:06:05.623Z,8.40
2022-11-05T20:08:47.807Z,9.32
2022-11-05T20:11:27.019Z,8.65
2022-11-05T20:13:57.611Z,7.75
2022-11-05T20:16:32.407Z,9.00
2022-11-05T20:19:02.912Z,7.55
2022-11-05T20:21:36.042Z,8.25
2022-11-05T20:24:07.287Z,7.72
2022-11-05T20:26:38.578Z,7.75
2022-11-05T20:29:09.522Z,7.85
2022-11-05T20:31:39.937Z,7.43
2022-11-05T20:34:10.687Z,7.68
2022-11-05T20:36:44.323Z,7.78
2022-11-05T20:39:15.018Z,6.90
2022-11-05T20:41:45.474Z,6.47
2022-11-05T20:44:16.133Z,7.60
2022-11-05T20:46:46.738Z,7.80
2022-11-05T20:49:21.248Z,7.40
2022-11-05T20:51:57.596Z,7.50
2022-11-05T20:54:28.302Z,6.68
2022-11-05T20:56:58.833Z,7.55
2022-11-05T20:59:29.634Z,7.60
2022-11-05T21:02:00.298Z,8.05
2022-11-05T21:04:31.026Z,6.57
2022-11-05T21:07:04.098Z,7.15
2022-11-05T21:09:34.779Z,7.65
2022-11-05T21:12:14.347Z,5.47
2022-11-05T21:14:46.109Z,5.32
2022-11-05T21:17:16.915Z,6.45
2022-11-05T21:19:47.512Z,5.10
2022-11-05T21:22:20.599Z,6.13
2022-11-05T21:24:51.108Z,5.15
2022-11-05T21:27:21.659Z,4.78
2022-11-05T21:29:52.169Z,6.40
2022-11-05T21:32:22.624Z,7.75
2022-11-05T21:34:53.267Z,5.30
2022-11-05T21:37:26.708Z,5.88
2022-11-05T21:39:57.263Z,5.20
2022-11-05T21:42:27.817Z,5.50
2022-11-05T21:45:00.557Z,5.35
2022-11-05T21:47:31.890Z,5.85
2022-11-05T21:50:02.474Z,6.25
2022-11-05T21:52:48.482Z,6.32
2022-11-05T21:55:31.281Z,8.15
2022-11-05T21:58:24.567Z,10.10
2022-11-05T22:00:55.066Z,10.02
2022-11-05T22:03:25.461Z,10.02
2022-11-05T22:05:56.589Z,14.75
2022-11-05T22:08:29.698Z,14.88
2022-11-05T22:11:00.362Z,15.02
2022-11-05T22:13:30.907Z,15.13
2022-11-05T22:16:01.569Z,15.68
2022-11-05T22:18:32.378Z,16.83
2022-11-05T22:21:02.929Z,16.25
2022-11-05T22:23:35.969Z,15.55
2022-11-05T22:26:06.552Z,15.65
2022-11-05T22:28:36.993Z,14.77
2022-11-05T22:31:07.531Z,13.57
2022-11-05T22:33:38.036Z,12.52
2022-11-05T22:36:09.343Z,12.50
2022-11-05T22:38:43.111Z,12.77
2022-11-05T22:41:15.789Z,12.35
2022-11-05T22:43:47.060Z,13.43
2022-11-05T22:46:19.190Z,11.35
2022-11-05T22:48:50.323Z,11.27
2022-11-05T22:51:24.161Z,12.45
2022-11-05T22:53:57.736Z,10.43
2022-11-05T22:56:30.419Z,10.73
2022-11-05T22:59:01.241Z,10.73
2022-11-05T23:01:32.837Z,11.38
2022-11-05T23:04:03.633Z,11.18
2022-11-05T23:06:47.854Z,10.90
2022-11-05T23:09:34.953Z,10.85
2022-11-05T23:12:07.642Z,11.77
2022-11-05T23:14:38.442Z,13.00
2022-11-05T23:17:21.340Z,12.77
2022-11-05T23:20:04.173Z,13.02
2022-11-05T23:22:47.433Z,13.07
2022-11-05T23:25:23.694Z,13.18
2022-11-05T23:27:56.436Z,13.00
2022-11-05T23:30:30.630Z,11.73
2022-11-05T23:32:59.786Z,12.37
2022-11-05T23:35:43.287Z,12.02
2022-11-05T23:38:26.612Z,13.98
2022-11-05T23:41:15.846Z,11.02
2022-11-05T23:43:59.198Z,12.00
2022-11-05T23:46:42.459Z,11.95
2022-11-05T23:49:15.697Z,12.07
2022-11-05T23:51:47.217Z,12.82
2022-11-05T23:54:18.902Z,10.35
2022-11-05T23:56:52.118Z,12.55
2022-11-05T23:59:22.699Z,11.10
